EDT,Max TemperatureF,Mean TemperatureF,Min TemperatureF,Max Dew PointF,MeanDew PointF,Min DewpointF,Max Humidity, Mean Humidity, Min Humidity, Max Sea Level PressureIn, Mean Sea Level PressureIn, Min Sea Level PressureIn, Max VisibilityMiles, Mean VisibilityMiles, Min VisibilityMiles, Max Wind SpeedMPH, Mean Wind SpeedMPH, Max Gust SpeedMPH,PrecipitationIn, CloudCover, Events, WindDirDegrees
2012-9-1,86,80,73,74,71,68,87,74,61,30.18,30.10,30.02,10,9,2,8,1,13,0.11,3,Rain-Thunderstorm,123
2012-9-2,87,78,69,71,69,67,97,77,57,30.04,29.95,29.88,10,9,2,10,2,16,0.42,3,Rain-Thunderstorm,144
2012-9-3,79,74,69,70,68,66,97,87,76,29.97,29.91,29.87,10,9,2,8,2,14,0.15,6,Rain,148
2012-9-4,83,77,70,73,70,68,93,81,69,29.96,29.91,29.85,10,10,10,5,0,8,T,7,Rain,235
2012-9-5,87,78,68,72,69,66,100,79,57,29.96,29.89,29.81,10,5,0,14,1,20,0.85,5,Fog-Rain-Thunderstorm,198
2012-9-6,80,74,67,70,67,66,100,86,71,30.04,29.96,29.88,10,4,0,6,1,9,0.00,7,Fog,285
2012-9-7,88,76,64,69,65,63,100,72,43,30.02,29.94,29.77,10,5,0,7,1,12,0.00,1,Fog,163
2012-9-8,74,66,57,66,61,54,100,84,68,29.94,29.82,29.71,10,8,2,17,2,28,0.35,5,Rain,307
2012-9-9,76,65,53,57,53,48,100,71,41,30.04,29.98,29.93,10,7,0,8,1,12,0.00,3,Fog,276
2012-9-10,75,64,53,55,51,46,93,66,38,30.19,30.14,30.04,10,10,10,7,1,12,0.00,0,,315
2012-9-11,80,68,55,55,50,46,77,58,39,30.28,30.22,30.19,10,10,10,6,1,10,0.00,0,,110
2012-9-12,82,71,59,60,57,55,84,65,45,30.33,30.26,30.22,10,10,10,6,1,9,0.00,1,,131
2012-9-13,79,71,62,61,59,57,84,69,54,30.33,30.27,30.22,10,10,10,7,1,10,0.00,1,,158
2012-9-14,82,70,58,63,60,54,100,71,42,30.28,30.24,30.18,10,6,0,9,1,14,0.00,3,Fog,50
2012-9-15,72,65,57,58,53,47,86,70,53,30.31,30.23,30.16,10,10,10,6,0,10,0.00,4,,-1
2012-9-16,72,66,59,58,52,46,69,61,53,30.16,30.10,30.05,10,10,10,5,0,8,T,5,Rain,145
2012-9-17,67,65,62,66,64,57,100,89,78,30.05,29.94,29.77,10,3,0,7,1,12,2.33,8,Fog-Rain,142
2012-9-18,65,59,53,64,62,49,100,89,77,29.99,29.75,29.66,10,4,0,17,3,26,1.49,8,Fog-Rain,295
2012-9-19,66,56,46,46,42,38,86,63,40,30.18,30.12,30.01,10,10,9,8,1,10,0.00,0,,44
2012-9-20,77,62,46,56,50,43,93,70,46,30.12,30.06,30.00,10,10,10,9,2,17,0.00,0,,144
2012-9-21,78,69,59,57,55,54,78,66,53,30.04,29.97,29.86,10,10,10,8,2,15,0.00,2,,190
2012-9-22,77,63,49,57,49,38,73,53,33,30.12,29.95,29.86,10,10,10,16,5,25,T,2,,288
2012-9-23,65,53,41,38,35,30,70,52,34,30.24,30.20,30.14,10,10,10,8,2,12,0.00,0,,328
2012-9-24,67,54,40,44,39,35,93,64,34,30.30,30.22,30.12,10,10,10,7,1,10,0.00,0,,339
2012-9-25,62,56,49,57,50,41,93,80,66,30.23,30.12,30.05,10,8,1,8,2,14,0.41,5,Rain-Thunderstorm,228
2012-9-26,81,69,56,61,57,54,93,72,50,30.16,30.12,30.09,10,10,10,8,2,17,0.00,1,,251
2012-9-27,75,69,62,63,60,57,87,78,68,30.18,30.13,30.10,10,10,10,7,1,16,T,3,Rain,257
2012-9-28,67,64,60,64,62,59,100,97,93,30.14,30.09,30.03,10,3,0,14,1,26,0.66,8,Fog-Rain-Thunderstorm,217
2012-9-29,69,62,55,61,57,48,100,80,59,30.08,30.04,29.94,10,4,0,5,0,9,T,6,Fog-Rain,35
2012-9-30,72,60,47,55,50,46,100,76,51,29.96,29.91,29.84,10,6,0,7,1,10,0.00,2,Fog,135